Time;durP1;ratioP1;P1;durP2;ratioP2;P2;SDS_P1;SDS_P2;PMS_P1;PMS_P2;Temp;Humidity;BMP_temperature;BMP_pressure;BME280_temperature;BME280_humidity;BME280_pressure;Samples;Min_cycle;Max_cycle;Signal;HPM_P1;HPM_P2
2021/12/09 00:01:53;;;;;;;13.50;6.57;;;;;;;;;;5000607;28;20050;-64
2021/12/09 00:04:30;;;;;;;16.30;7.30;;;;;;;;;;4996475;28;20436;-64
2021/12/09 00:07:00;;;;;;;12.68;5.85;;;;;;;;;;4992199;28;20528;-64
2021/12/09 00:09:29;;;;;;;14.77;7.78;;;;;;;;;;4991873;28;20088;-64
2021/12/09 00:11:58;;;;;;;15.90;6.60;;;;;;;;;;4994860;28;20050;-64
2021/12/09 00:14:27;;;;;;;16.10;6.50;;;;;;;;;;4983725;28;20492;-64
2021/12/09 00:16:57;;;;;;;12.75;6.30;;;;;;;;;;4972839;28;20063;-64
2021/12/09 00:19:27;;;;;;;12.10;5.95;;;;;;;;;;4973117;28;20471;-64
2021/12/09 00:21:58;;;;;;;17.70;5.97;;;;;;;;;;4977217;28;20089;-64
2021/12/09 00:24:27;;;;;;;14.40;6.82;;;;;;;;;;4972442;28;20050;-64
2021/12/09 00:26:55;;;;;;;11.70;6.20;;;;;;;;;;4982811;28;20691;-64
2021/12/09 00:29:24;;;;;;;15.60;6.28;;;;;;;;;;4980638;28;20078;-64
2021/12/09 00:31:53;;;;;;;11.93;5.90;;;;;;;;;;4987527;28;20137;-64
2021/12/09 00:34:29;;;;;;;11.60;6.22;;;;;;;;;;4975245;28;20047;-64
2021/12/09 00:37:02;;;;;;;10.80;5.72;;;;;;;;;;4982319;28;20076;-64
2021/12/09 00:39:31;;;;;;;14.02;5.97;;;;;;;;;;4991999;28;20057;-63
2021/12/09 00:41:59;;;;;;;15.55;6.22;;;;;;;;;;4985537;28;20050;-64
2021/12/09 00:44:27;;;;;;;12.98;5.72;;;;;;;;;;4979103;28;20064;-63
2021/12/09 00:46:55;;;;;;;11.45;5.70;;;;;;;;;;4994260;28;20054;-63
2021/12/09 00:49:24;;;;;;;13.77;6.03;;;;;;;;;;4977735;28;20054;-64
2021/12/09 00:51:52;;;;;;;15.93;6.32;;;;;;;;;;4988731;28;20133;-64
2021/12/09 00:54:21;;;;;;;10.73;5.20;;;;;;;;;;4980441;28;20113;-64
2021/12/09 00:56:50;;;;;;;13.35;6.38;;;;;;;;;;4984331;28;20093;-63
2021/12/09 00:59:18;;;;;;;12.68;5.78;;;;;;;;;;4979297;28;20383;-63
2021/12/09 01:01:46;;;;;;;11.00;5.60;;;;;;;;;;4978227;28;20046;-63
2021/12/09 01:04:15;;;;;;;14.13;6.07;;;;;;;;;;4978182;28;20094;-63
2021/12/09 01:06:43;;;;;;;13.00;6.07;;;;;;;;;;4982855;28;20504;-63
2021/12/09 01:09:12;;;;;;;11.35;4.68;;;;;;;;;;4975713;28;20545;-63
2021/12/09 01:11:41;;;;;;;12.20;5.97;;;;;;;;;;4984053;28;20042;-63
2021/12/09 01:14:10;;;;;;;9.73;5.07;;;;;;;;;;4982174;28;20119;-63
2021/12/09 01:16:38;;;;;;;12.07;5.07;;;;;;;;;;4984047;28;20058;-63
2021/12/09 01:19:07;;;;;;;10.40;5.28;;;;;;;;;;4975761;28;20077;-63
2021/12/09 01:21:35;;;;;;;13.00;5.38;;;;;;;;;;4983236;28;20047;-63
2021/12/09 01:24:03;;;;;;;12.07;5.25;;;;;;;;;;4976792;28;20062;-63
2021/12/09 01:26:32;;;;;;;10.80;4.70;;;;;;;;;;4978975;28;20518;-63
2021/12/09 01:29:07;;;;;;;10.10;4.38;;;;;;;;;;4985251;28;20137;-63
2021/12/09 01:31:38;;;;;;;9.30;5.10;;;;;;;;;;4980715;28;20050;-63
2021/12/09 01:34:08;;;;;;;8.85;4.80;;;;;;;;;;4983265;28;20043;-63
2021/12/09 01:36:37;;;;;;;9.07;5.03;;;;;;;;;;4974956;28;20487;-63
2021/12/09 01:39:08;;;;;;;8.85;3.88;;;;;;;;;;4974703;28;20050;-63
2021/12/09 01:41:36;;;;;;;10.65;4.65;;;;;;;;;;4974314;28;20051;-64
2021/12/09 01:44:06;;;;;;;8.50;4.28;;;;;;;;;;4980137;28;20056;-64
2021/12/09 01:46:34;;;;;;;8.40;4.85;;;;;;;;;;4979114;28;20047;-64
2021/12/09 01:49:02;;;;;;;10.05;4.40;;;;;;;;;;4974139;28;20050;-64
2021/12/09 01:51:31;;;;;;;9.90;4.63;;;;;;;;;;4979331;28;20057;-64
2021/12/09 01:53:59;;;;;;;8.82;4.75;;;;;;;;;;4974612;28;20137;-64
2021/12/09 01:56:28;;;;;;;10.30;5.25;;;;;;;;;;4982326;28;20232;-64
2021/12/09 01:58:57;;;;;;;9.93;4.72;;;;;;;;;;4991719;28;20047;-64
2021/12/09 02:01:27;;;;;;;10.55;4.78;;;;;;;;;;4978906;28;20042;-64
2021/12/09 02:03:57;;;;;;;8.82;4.35;;;;;;;;;;4976278;28;20197;-64
2021/12/09 02:06:25;;;;;;;9.27;4.70;;;;;;;;;;4986950;28;20483;-64
2021/12/09 02:08:54;;;;;;;7.60;4.03;;;;;;;;;;4974017;28;20050;-64
2021/12/09 02:11:24;;;;;;;9.15;4.85;;;;;;;;;;4982473;28;20161;-64
2021/12/09 02:13:56;;;;;;;8.25;4.57;;;;;;;;;;4980605;28;20131;-64
2021/12/09 02:16:24;;;;;;;7.60;3.75;;;;;;;;;;4986241;28;20047;-64
2021/12/09 02:18:54;;;;;;;10.27;4.45;;;;;;;;;;4980485;28;20133;-64
2021/12/09 02:21:24;;;;;;;7.57;4.07;;;;;;;;;;4986484;28;20056;-64
2021/12/09 02:23:54;;;;;;;5.93;3.80;;;;;;;;;;4997334;28;20057;-63
2021/12/09 02:26:24;;;;;;;6.78;4.10;;;;;;;;;;4978152;28;20060;-63
2021/12/09 02:28:53;;;;;;;7.18;4.00;;;;;;;;;;4982701;28;20050;-63
2021/12/09 02:31:22;;;;;;;5.93;3.72;;;;;;;;;;4975284;28;20491;-63
2021/12/09 02:33:51;;;;;;;6.55;3.60;;;;;;;;;;4974333;28;20047;-63
2021/12/09 02:36:19;;;;;;;7.20;3.80;;;;;;;;;;4986860;28;20125;-63
2021/12/09 02:38:50;;;;;;;7.88;3.85;;;;;;;;;;4974219;28;20051;-63
2021/12/09 02:41:20;;;;;;;7.05;3.88;;;;;;;;;;4973774;28;20047;-63
2021/12/09 02:43:50;;;;;;;9.07;3.90;;;;;;;;;;4973421;28;20404;-63
2021/12/09 02:46:19;;;;;;;7.22;4.15;;;;;;;;;;4976723;28;20072;-63
2021/12/09 02:48:48;;;;;;;6.40;3.72;;;;;;;;;;4979198;28;20046;-63
2021/12/09 02:51:16;;;;;;;5.72;3.88;;;;;;;;;;4987661;28;20147;-63
2021/12/09 02:53:44;;;;;;;7.07;3.50;;;;;;;;;;4972836;28;20058;-63
2021/12/09 02:56:14;;;;;;;5.75;3.63;;;;;;;;;;4975837;28;20577;-63
2021/12/09 02:58:42;;;;;;;5.07;3.20;;;;;;;;;;4979511;28;20046;-64
2021/12/09 03:01:15;;;;;;;6.97;3.75;;;;;;;;;;4984919;28;20161;-64
2021/12/09 03:03:50;;;;;;;5.43;2.75;;;;;;;;;;4983860;28;20051;-64
2021/12/09 03:06:19;;;;;;;4.60;2.65;;;;;;;;;;4981691;28;20050;-64
2021/12/09 03:08:47;;;;;;;5.75;3.53;;;;;;;;;;4976941;28;20043;-64
2021/12/09 03:11:19;;;;;;;6.05;3.58;;;;;;;;;;4985536;28;20136;-63
2021/12/09 03:13:48;;;;;;;5.03;3.45;;;;;;;;;;4986790;28;20054;-63
2021/12/09 03:16:19;;;;;;;5.72;3.67;;;;;;;;;;4983113;28;20074;-64
2021/12/09 03:18:48;;;;;;;4.70;3.22;;;;;;;;;;4983347;28;20074;-63
2021/12/09 03:21:17;;;;;;;8.93;3.10;;;;;;;;;;4994699;28;20057;-64
2021/12/09 03:23:46;;;;;;;5.35;3.47;;;;;;;;;;4981168;28;20046;-63
2021/12/09 03:26:14;;;;;;;4.93;3.05;;;;;;;;;;4989036;28;20055;-64
2021/12/09 03:28:44;;;;;;;6.75;4.00;;;;;;;;;;4989158;28;20259;-64
2021/12/09 03:31:12;;;;;;;10.82;4.38;;;;;;;;;;4973963;28;20050;-64
2021/12/09 03:33:50;;;;;;;6.83;3.52;;;;;;;;;;3864137;28;10021757;-64
2021/12/09 03:36:18;;;;;;;5.88;3.75;;;;;;;;;;1715859;28;10002133;-64
2021/12/09 03:38:46;;;;;;;7.57;3.97;;;;;;;;;;4991306;28;20134;-64
2021/12/09 03:41:14;;;;;;;6.30;3.70;;;;;;;;;;4989324;28;20490;-64
2021/12/09 03:43:44;;;;;;;9.32;4.05;;;;;;;;;;4990361;28;20053;-64
2021/12/09 03:46:12;;;;;;;9.23;3.63;;;;;;;;;;4990802;28;20057;-64
2021/12/09 03:48:41;;;;;;;8.82;4.22;;;;;;;;;;4990511;28;20516;-63
2021/12/09 03:51:09;;;;;;;7.00;3.85;;;;;;;;;;4984893;28;20072;-63
2021/12/09 03:53:37;;;;;;;6.68;3.75;;;;;;;;;;4971262;28;20065;-63
2021/12/09 03:56:06;;;;;;;9.00;4.50;;;;;;;;;;4983884;28;20472;-63
2021/12/09 03:58:34;;;;;;;6.60;3.85;;;;;;;;;;4974302;28;20491;-63
2021/12/09 04:01:07;;;;;;;8.82;4.05;;;;;;;;;;4978362;28;20054;-63
2021/12/09 04:03:36;;;;;;;6.95;3.97;;;;;;;;;;4996386;28;20046;-63
2021/12/09 04:06:07;;;;;;;5.88;3.97;;;;;;;;;;5002698;28;20045;-63
2021/12/09 04:08:35;;;;;;;8.48;4.25;;;;;;;;;;5023574;28;20042;-64
2021/12/09 04:11:07;;;;;;;7.93;4.22;;;;;;;;;;4999998;28;20050;-64
2021/12/09 04:13:35;;;;;;;12.07;4.53;;;;;;;;;;4994519;28;20135;-64
2021/12/09 04:16:08;;;;;;;6.70;4.03;;;;;;;;;;5000074;28;20406;-64
2021/12/09 04:18:36;;;;;;;7.28;4.07;;;;;;;;;;4995356;28;20157;-64
2021/12/09 04:21:09;;;;;;;10.50;4.30;;;;;;;;;;5002567;28;20050;-64
2021/12/09 04:23:37;;;;;;;7.88;3.83;;;;;;;;;;4981152;28;20486;-64
2021/12/09 04:26:08;;;;;;;6.70;3.83;;;;;;;;;;4981881;28;20051;-64
2021/12/09 04:28:38;;;;;;;11.05;4.55;;;;;;;;;;4977602;28;20042;-64
2021/12/09 04:31:08;;;;;;;7.35;4.13;;;;;;;;;;4976411;28;20050;-64
2021/12/09 04:33:37;;;;;;;9.35;4.32;;;;;;;;;;4977341;28;20046;-64
2021/12/09 04:36:08;;;;;;;8.93;4.70;;;;;;;;;;4977991;28;20050;-64
2021/12/09 04:38:36;;;;;;;8.98;4.65;;;;;;;;;;4972301;28;20490;-64
2021/12/09 04:41:08;;;;;;;9.90;4.10;;;;;;;;;;4972158;28;20047;-64
2021/12/09 04:43:40;;;;;;;9.38;4.90;;;;;;;;;;4978464;28;20141;-64
2021/12/09 04:46:09;;;;;;;11.00;4.68;;;;;;;;;;4972937;28;20057;-64
2021/12/09 04:48:37;;;;;;;8.10;4.32;;;;;;;;;;4978469;28;20479;-64
2021/12/09 04:51:07;;;;;;;8.90;4.82;;;;;;;;;;4971577;28;20116;-64
2021/12/09 04:53:35;;;;;;;10.32;4.90;;;;;;;;;;4974081;28;20050;-64
2021/12/09 04:56:07;;;;;;;10.02;4.72;;;;;;;;;;4977975;28;20046;-64
2021/12/09 04:58:35;;;;;;;10.07;4.60;;;;;;;;;;4976472;28;20137;-64
2021/12/09 05:01:08;;;;;;;9.93;4.75;;;;;;;;;;4973382;28;20157;-64
2021/12/09 05:03:38;;;;;;;11.10;5.20;;;;;;;;;;4976678;28;20047;-64
2021/12/09 05:06:07;;;;;;;11.70;5.43;;;;;;;;;;4975951;28;20054;-63
2021/12/09 05:08:37;;;;;;;10.70;4.90;;;;;;;;;;4978651;28;20054;-63
2021/12/09 05:11:10;;;;;;;12.05;5.07;;;;;;;;;;4987307;28;20050;-63
2021/12/09 05:13:41;;;;;;;12.05;4.90;;;;;;;;;;4983360;28;20457;-63
2021/12/09 05:16:11;;;;;;;12.85;5.00;;;;;;;;;;4983434;28;20058;-64
2021/12/09 05:18:42;;;;;;;10.55;5.13;;;;;;;;;;4973968;28;20097;-64
2021/12/09 05:21:12;;;;;;;13.27;5.30;;;;;;;;;;4982390;28;20054;-64
2021/12/09 05:23:40;;;;;;;9.57;4.75;;;;;;;;;;4973464;28;20065;-64
2021/12/09 05:26:09;;;;;;;9.80;4.97;;;;;;;;;;4975900;28;20157;-64
2021/12/09 05:28:53;;;;;;;10.25;5.22;;;;;;;;;;4978164;28;20506;-63
2021/12/09 05:34:09;;;;;;;14.13;6.00;;;;;;;;;;4972925;28;20808;-63
2021/12/09 05:36:37;;;;;;;10.43;5.20;;;;;;;;;;4976999;28;20057;-63
2021/12/09 05:39:06;;;;;;;12.57;5.90;;;;;;;;;;4973310;28;20049;-63
2021/12/09 05:41:35;;;;;;;14.52;5.70;;;;;;;;;;4972509;28;20495;-64
2021/12/09 05:44:04;;;;;;;13.15;6.18;;;;;;;;;;4979243;28;21226;-63
2021/12/09 05:46:34;;;;;;;19.55;6.10;;;;;;;;;;4982286;28;20487;-64
2021/12/09 05:49:02;;;;;;;11.43;5.85;;;;;;;;;;4980009;28;20066;-64
2021/12/09 05:51:32;;;;;;;11.15;5.45;;;;;;;;;;4980865;28;20109;-64
2021/12/09 05:54:00;;;;;;;11.45;5.95;;;;;;;;;;4974446;28;20644;-64
2021/12/09 05:56:29;;;;;;;11.13;5.43;;;;;;;;;;4985051;28;20047;-64
2021/12/09 05:58:57;;;;;;;12.55;6.32;;;;;;;;;;4982444;28;20177;-64
2021/12/09 06:01:25;;;;;;;18.55;6.35;;;;;;;;;;4981180;28;20499;-64
2021/12/09 06:03:54;;;;;;;12.07;5.43;;;;;;;;;;4989181;28;20048;-64
2021/12/09 06:06:22;;;;;;;12.45;5.40;;;;;;;;;;4983193;28;20057;-64
2021/12/09 06:08:51;;;;;;;13.18;5.78;;;;;;;;;;4971911;28;20474;-64
2021/12/09 06:11:20;;;;;;;8.60;4.60;;;;;;;;;;4972305;28;20053;-64
2021/12/09 06:13:49;;;;;;;11.55;6.35;;;;;;;;;;4978549;28;20137;-64
2021/12/09 06:16:17;;;;;;;13.32;5.18;;;;;;;;;;4972297;28;20484;-64
2021/12/09 06:18:46;;;;;;;12.23;5.70;;;;;;;;;;4980906;28;20375;-63
2021/12/09 06:21:14;;;;;;;13.88;5.70;;;;;;;;;;4977035;28;20060;-64
2021/12/09 06:23:42;;;;;;;11.82;5.85;;;;;;;;;;4981743;28;20058;-64
2021/12/09 06:26:12;;;;;;;10.25;4.90;;;;;;;;;;4984735;28;20429;-63
2021/12/09 06:28:40;;;;;;;9.85;5.43;;;;;;;;;;4983452;28;20087;-63
2021/12/09 06:31:09;;;;;;;12.43;5.07;;;;;;;;;;4970207;28;20272;-64
2021/12/09 06:33:38;;;;;;;11.45;5.45;;;;;;;;;;4984572;28;20512;-64
2021/12/09 06:36:06;;;;;;;15.07;4.70;;;;;;;;;;4976547;28;20054;-64
2021/12/09 06:38:35;;;;;;;9.52;4.35;;;;;;;;;;4984108;28;20413;-64
2021/12/09 06:41:08;;;;;;;10.85;5.00;;;;;;;;;;4982798;28;20046;-63
2021/12/09 06:43:40;;;;;;;8.32;4.60;;;;;;;;;;4975971;28;20086;-63
2021/12/09 06:46:09;;;;;;;12.38;5.47;;;;;;;;;;4978485;28;20046;-63
2021/12/09 06:48:38;;;;;;;11.00;5.30;;;;;;;;;;4974008;28;20053;-63
2021/12/09 06:51:08;;;;;;;13.82;6.03;;;;;;;;;;4969061;28;20057;-63
2021/12/09 06:53:37;;;;;;;7.45;4.45;;;;;;;;;;4972904;28;20046;-63
2021/12/09 06:56:06;;;;;;;12.27;5.50;;;;;;;;;;4979164;28;20051;-63
2021/12/09 06:58:35;;;;;;;10.13;4.15;;;;;;;;;;4974533;28;20414;-63
2021/12/09 07:01:08;;;;;;;10.77;4.60;;;;;;;;;;4972483;28;20098;-63
2021/12/09 07:03:38;;;;;;;9.35;3.85;;;;;;;;;;4978322;28;20058;-63
2021/12/09 07:06:08;;;;;;;10.85;4.60;;;;;;;;;;4979437;28;20054;-64
2021/12/09 07:08:44;;;;;;;7.78;3.67;;;;;;;;;;4980540;28;20043;-63
2021/12/09 07:11:12;;;;;;;6.40;3.58;;;;;;;;;;4984690;28;20161;-64
2021/12/09 07:13:41;;;;;;;7.93;3.92;;;;;;;;;;4984380;28;20477;-64
2021/12/09 07:16:11;;;;;;;9.50;3.92;;;;;;;;;;4979752;28;20152;-64
2021/12/09 07:18:40;;;;;;;9.45;4.18;;;;;;;;;;4984949;28;20046;-64
2021/12/09 07:21:09;;;;;;;6.55;3.58;;;;;;;;;;4983174;28;20122;-64
2021/12/09 07:23:38;;;;;;;4.47;2.80;;;;;;;;;;4978540;28;20050;-64
2021/12/09 07:26:06;;;;;;;7.90;3.50;;;;;;;;;;4978226;28;20046;-64
2021/12/09 07:28:34;;;;;;;6.30;3.60;;;;;;;;;;4977305;28;20124;-64
2021/12/09 07:31:06;;;;;;;6.35;3.42;;;;;;;;;;4975264;28;20062;-64
2021/12/09 07:33:36;;;;;;;7.93;3.20;;;;;;;;;;4970685;28;20043;-64
2021/12/09 07:36:07;;;;;;;6.03;3.30;;;;;;;;;;4974602;28;20064;-64
2021/12/09 07:38:36;;;;;;;7.97;3.35;;;;;;;;;;4988836;28;20228;-64
2021/12/09 07:41:09;;;;;;;10.00;2.75;;;;;;;;;;4984618;28;20528;-64
2021/12/09 07:43:37;;;;;;;6.03;2.78;;;;;;;;;;4982762;28;20101;-64
2021/12/09 07:46:08;;;;;;;8.05;2.65;;;;;;;;;;4971684;28;20494;-64
2021/12/09 07:48:38;;;;;;;4.30;2.78;;;;;;;;;;4970035;28;20054;-64
2021/12/09 07:51:08;;;;;;;4.75;3.10;;;;;;;;;;4971539;28;20054;-64
2021/12/09 07:53:36;;;;;;;7.63;3.08;;;;;;;;;;4968970;28;20646;-64
2021/12/09 07:56:07;;;;;;;7.53;2.92;;;;;;;;;;4980768;28;20058;-63
2021/12/09 07:58:36;;;;;;;4.88;2.72;;;;;;;;;;4980924;28;20545;-63
2021/12/09 08:01:07;;;;;;;7.90;3.38;;;;;;;;;;4972565;28;20549;-63
2021/12/09 08:03:36;;;;;;;8.73;3.58;;;;;;;;;;4983415;28;20449;-63
2021/12/09 08:06:08;;;;;;;5.28;3.22;;;;;;;;;;4968532;28;20101;-64
2021/12/09 08:08:37;;;;;;;7.90;3.47;;;;;;;;;;4978680;28;20145;-64
2021/12/09 08:11:07;;;;;;;6.03;2.72;;;;;;;;;;4967561;28;20063;-63
2021/12/09 08:13:35;;;;;;;7.50;3.40;;;;;;;;;;4973742;28;20406;-63
2021/12/09 08:16:07;;;;;;;8.98;3.55;;;;;;;;;;4977472;28;20400;-63
2021/12/09 08:18:53;;;;;;;8.57;3.67;;;;;;;;;;4969104;28;20059;-63
2021/12/09 08:21:24;;;;;;;9.50;3.33;;;;;;;;;;4977293;28;20050;-63
2021/12/09 08:23:53;;;;;;;9.90;3.75;;;;;;;;;;4971693;28;20590;-63
2021/12/09 08:26:23;;;;;;;6.40;3.72;;;;;;;;;;4979675;28;20440;-63
2021/12/09 08:28:52;;;;;;;8.20;3.33;;;;;;;;;;4973406;28;20481;-63
2021/12/09 08:31:21;;;;;;;6.75;3.60;;;;;;;;;;4971351;28;20240;-63
2021/12/09 08:33:50;;;;;;;7.35;3.53;;;;;;;;;;4977488;28;20150;-63
2021/12/09 08:36:40;;;;;;;7.63;3.40;;;;;;;;;;4981184;28;20405;-63
2021/12/09 08:39:09;;;;;;;8.90;3.80;;;;;;;;;;4978163;28;20053;-63
2021/12/09 08:41:39;;;;;;;6.97;3.78;;;;;;;;;;4973970;28;20154;-63
2021/12/09 08:44:08;;;;;;;6.43;3.10;;;;;;;;;;4978756;28;20054;-63
2021/12/09 08:46:38;;;;;;;9.15;3.97;;;;;;;;;;4978724;28;20057;-64
2021/12/09 08:49:08;;;;;;;6.05;3.10;;;;;;;;;;4978249;28;20497;-62
2021/12/09 08:51:37;;;;;;;9.35;3.42;;;;;;;;;;4972600;28;20062;-63
2021/12/09 08:54:09;;;;;;;11.02;4.18;;;;;;;;;;4981760;28;20065;-63
2021/12/09 08:56:39;;;;;;;7.65;3.08;;;;;;;;;;4973732;28;20125;-63
2021/12/09 08:59:09;;;;;;;8.63;3.35;;;;;;;;;;4976792;28;20058;-63
2021/12/09 09:01:58;;;;;;;6.50;3.15;;;;;;;;;;4978890;28;20052;-63
2021/12/09 09:04:26;;;;;;;6.35;3.22;;;;;;;;;;4983743;28;20399;-62
2021/12/09 09:06:57;;;;;;;7.65;3.88;;;;;;;;;;4986148;28;20061;-62
2021/12/09 09:09:33;;;;;;;7.40;3.47;;;;;;;;;;4980949;28;20494;-64
2021/12/09 09:12:02;;;;;;;7.07;3.83;;;;;;;;;;4984712;28;20054;-64
2021/12/09 09:14:30;;;;;;;10.98;3.53;;;;;;;;;;4975846;28;20375;-65
2021/12/09 09:16:59;;;;;;;57.13;6.00;;;;;;;;;;4987556;28;20046;-67
2021/12/09 09:19:28;;;;;;;12.63;3.25;;;;;;;;;;4981137;28;20106;-67
2021/12/09 09:21:57;;;;;;;6.68;3.40;;;;;;;;;;4995662;28;20045;-67
2021/12/09 09:24:27;;;;;;;8.85;3.40;;;;;;;;;;5004397;28;20144;-67
2021/12/09 09:26:55;;;;;;;8.73;3.47;;;;;;;;;;5002095;28;20049;-66
2021/12/09 09:29:25;;;;;;;8.45;3.83;;;;;;;;;;5008367;28;20049;-66
2021/12/09 09:31:55;;;;;;;8.30;3.85;;;;;;;;;;4988398;28;20739;-68
2021/12/09 09:34:23;;;;;;;10.82;3.17;;;;;;;;;;4987718;28;20054;-66
2021/12/09 09:36:52;;;;;;;6.57;3.72;;;;;;;;;;4985427;28;20054;-66
2021/12/09 09:39:23;;;;;;;8.05;3.75;;;;;;;;;;4981007;28;20128;-66
2021/12/09 09:41:59;;;;;;;7.53;3.45;;;;;;;;;;4981435;28;20388;-66
2021/12/09 09:44:34;;;;;;;8.07;4.43;;;;;;;;;;4987863;28;20053;-68
2021/12/09 09:47:03;;;;;;;5.70;3.40;;;;;;;;;;4985329;28;20057;-66
2021/12/09 09:49:34;;;;;;;6.80;3.50;;;;;;;;;;4988487;28;20533;-67
2021/12/09 09:52:02;;;;;;;8.65;3.40;;;;;;;;;;4986674;28;20050;-67
2021/12/09 09:54:31;;;;;;;7.47;3.53;;;;;;;;;;4988841;28;20137;-67
2021/12/09 09:57:01;;;;;;;10.48;4.07;;;;;;;;;;4983398;28;20137;-68
2021/12/09 09:59:29;;;;;;;6.43;3.30;;;;;;;;;;4987556;28;20380;-68
2021/12/09 10:01:58;;;;;;;7.82;4.00;;;;;;;;;;4981678;28;20070;-71
2021/12/09 10:04:33;;;;;;;7.55;3.78;;;;;;;;;;4980045;28;20133;-68
2021/12/09 10:07:02;;;;;;;8.45;3.97;;;;;;;;;;4978358;28;20058;-68
2021/12/09 10:09:31;;;;;;;9.35;4.55;;;;;;;;;;4981018;28;20490;-69
2021/12/09 10:12:01;;;;;;;8.18;4.43;;;;;;;;;;4977086;28;20081;-69
2021/12/09 10:14:33;;;;;;;10.20;5.07;;;;;;;;;;4983513;28;20065;-68
2021/12/09 10:17:03;;;;;;;8.98;4.80;;;;;;;;;;4980820;28;20554;-69
2021/12/09 10:19:33;;;;;;;10.18;4.97;;;;;;;;;;4985145;28;20360;-68
2021/12/09 10:22:06;;;;;;;12.77;5.28;;;;;;;;;;4982274;28;20058;-68
2021/12/09 10:24:34;;;;;;;10.82;5.15;;;;;;;;;;4981051;28;20051;-68
2021/12/09 10:27:06;;;;;;;13.23;5.70;;;;;;;;;;4978028;28;20512;-69
2021/12/09 10:29:38;;;;;;;17.58;6.22;;;;;;;;;;4979337;28;20078;-68
2021/12/09 10:32:10;;;;;;;13.60;5.53;;;;;;;;;;4978553;28;20051;-68
2021/12/09 10:34:41;;;;;;;15.40;6.20;;;;;;;;;;4979766;28;20046;-68
2021/12/09 10:37:14;;;;;;;12.30;5.40;;;;;;;;;;4988955;28;20101;-69
2021/12/09 10:39:45;;;;;;;12.68;6.15;;;;;;;;;;4986829;28;20062;-69
2021/12/09 10:42:17;;;;;;;12.07;6.00;;;;;;;;;;4984171;28;20132;-70
2021/12/09 10:44:47;;;;;;;18.33;5.85;;;;;;;;;;4976740;28;20054;-69
2021/12/09 10:47:23;;;;;;;12.50;5.85;;;;;;;;;;4978927;28;20078;-69
2021/12/09 10:50:05;;;;;;;13.07;6.38;;;;;;;;;;4981795;28;20125;-68
2021/12/09 10:52:40;;;;;;;15.80;6.80;;;;;;;;;;4983324;28;20074;-69
2021/12/09 10:55:10;;;;;;;15.40;6.38;;;;;;;;;;4983082;28;20517;-68
2021/12/09 10:57:40;;;;;;;13.95;5.60;;;;;;;;;;4977299;28;20407;-69
2021/12/09 11:00:17;;;;;;;13.77;6.25;;;;;;;;;;4984037;28;20100;-69
2021/12/09 11:03:00;;;;;;;14.73;6.50;;;;;;;;;;4982282;28;20042;-69
2021/12/09 11:05:28;;;;;;;20.67;6.85;;;;;;;;;;4987514;28;20482;-68
2021/12/09 11:08:12;;;;;;;12.18;6.28;;;;;;;;;;4978987;28;20067;-69
2021/12/09 11:10:46;;;;;;;14.00;5.68;;;;;;;;;;4978357;28;20518;-68
2021/12/09 11:13:17;;;;;;;12.15;5.78;;;;;;;;;;4984904;28;20163;-68
2021/12/09 11:15:56;;;;;;;15.90;5.70;;;;;;;;;;4981105;28;20049;-68
2021/12/09 11:18:28;;;;;;;13.63;6.22;;;;;;;;;;4983333;28;20181;-69
2021/12/09 11:20:57;;;;;;;14.07;6.53;;;;;;;;;;4984447;28;20089;-68
2021/12/09 11:23:27;;;;;;;10.55;5.05;;;;;;;;;;4984976;28;20058;-68
2021/12/09 11:25:58;;;;;;;16.25;6.10;;;;;;;;;;4979223;28;20047;-68
2021/12/09 11:28:28;;;;;;;14.20;6.72;;;;;;;;;;4975078;28;20072;-70
2021/12/09 11:31:11;;;;;;;11.02;6.00;;;;;;;;;;4985544;28;20438;-69
2021/12/09 11:33:43;;;;;;;16.10;5.68;;;;;;;;;;4973981;28;20400;-69
2021/12/09 11:36:17;;;;;;;14.77;5.75;;;;;;;;;;4977582;28;20053;-69
2021/12/09 11:39:07;;;;;;;14.77;5.07;;;;;;;;;;4974346;28;20093;-70
2021/12/09 11:41:37;;;;;;;12.20;5.72;;;;;;;;;;4986623;28;20480;-68
2021/12/09 11:44:08;;;;;;;10.27;5.25;;;;;;;;;;4984276;28;20476;-69
2021/12/09 11:46:38;;;;;;;16.00;5.97;;;;;;;;;;4983478;28;20493;-71
2021/12/09 11:49:06;;;;;;;9.63;4.82;;;;;;;;;;4985690;28;20137;-69
2021/12/09 11:51:35;;;;;;;14.93;5.20;;;;;;;;;;4976245;28;20129;-69
2021/12/09 11:54:04;;;;;;;9.15;4.13;;;;;;;;;;4984507;28;20088;-68
2021/12/09 11:56:40;;;;;;;11.73;4.40;;;;;;;;;;4975073;28;20042;-69
2021/12/09 11:59:40;;;;;;;12.43;4.97;;;;;;;;;;4978166;28;20487;-69
2021/12/09 12:11:04;;;;;;;9.77;4.15;;;;;;;;;;4977274;28;20069;-69
2021/12/09 12:11:15;;;;;;;14.18;4.20;;;;;;;;;;4979637;28;20391;-71
2021/12/09 12:13:50;;;;;;;8.38;3.70;;;;;;;;;;4986278;28;20057;-68
2021/12/09 12:16:46;;;;;;;7.57;3.75;;;;;;;;;;4986791;28;20050;-68
2021/12/09 12:19:26;;;;;;;11.85;4.70;;;;;;;;;;4982964;28;20050;-68
2021/12/09 12:22:21;;;;;;;12.65;4.47;;;;;;;;;;4980625;28;20074;-68
2021/12/09 12:25:26;;;;;;;10.80;3.67;;;;;;;;;;4977127;28;20129;-69
2021/12/09 12:28:08;;;;;;;13.80;4.95;;;;;;;;;;4978427;28;20050;-68
2021/12/09 12:30:54;;;;;;;10.43;5.15;;;;;;;;;;4984485;28;20080;-69
2021/12/09 12:33:48;;;;;;;9.38;3.78;;;;;;;;;;4979612;28;20077;-68
2021/12/09 12:36:40;;;;;;;7.43;3.72;;;;;;;;;;4978729;28;20065;-68
2021/12/09 12:39:15;;;;;;;10.15;4.40;;;;;;;;;;4974776;28;20546;-71
2021/12/09 12:41:59;;;;;;;8.15;4.78;;;;;;;;;;4969909;28;20066;-68
2021/12/09 12:44:28;;;;;;;10.48;4.22;;;;;;;;;;4975830;28;20102;-69
2021/12/09 12:47:07;;;;;;;11.40;4.47;;;;;;;;;;4976902;28;20058;-69
2021/12/09 12:49:38;;;;;;;6.88;4.45;;;;;;;;;;4980089;28;20404;-67
2021/12/09 12:52:12;;;;;;;16.27;4.57;;;;;;;;;;4989260;28;20082;-68
2021/12/09 12:54:48;;;;;;;9.57;4.43;;;;;;;;;;4983632;28;20094;-68
2021/12/09 12:57:29;;;;;;;14.65;5.38;;;;;;;;;;4984714;28;20392;-68
2021/12/09 13:00:15;;;;;;;9.68;4.50;;;;;;;;;;4985295;28;20407;-68
2021/12/09 13:03:11;;;;;;;10.90;4.40;;;;;;;;;;4985352;28;20046;-69
2021/12/09 13:05:57;;;;;;;15.20;6.03;;;;;;;;;;4987733;28;20514;-68
2021/12/09 13:11:44;;;;;;;9.48;4.20;;;;;;;;;;4930660;28;20059;-69
2021/12/09 13:14:20;;;;;;;12.45;5.15;;;;;;;;;;4983351;28;20328;-69
2021/12/09 13:17:01;;;;;;;11.68;4.03;;;;;;;;;;4979481;28;20050;-69
2021/12/09 13:19:35;;;;;;;9.30;4.38;;;;;;;;;;4982060;28;20054;-69
2021/12/09 13:22:04;;;;;;;12.93;4.38;;;;;;;;;;4968474;28;20050;-69
2021/12/09 13:24:38;;;;;;;11.70;4.22;;;;;;;;;;4979806;28;20057;-69
2021/12/09 13:27:12;;;;;;;9.32;4.28;;;;;;;;;;4977617;28;20050;-69
2021/12/09 13:29:54;;;;;;;10.15;4.70;;;;;;;;;;4982692;28;20082;-68
2021/12/09 13:32:50;;;;;;;12.00;4.75;;;;;;;;;;5002240;28;20052;-69
2021/12/09 13:35:27;;;;;;;9.23;4.47;;;;;;;;;;4999699;28;20069;-69
2021/12/09 13:38:13;;;;;;;10.27;4.72;;;;;;;;;;4999538;28;20053;-69
2021/12/09 13:46:27;;;;;;;13.98;4.03;;;;;;;;;;4996411;28;20054;-69
2021/12/09 13:49:01;;;;;;;11.50;4.95;;;;;;;;;;4993079;28;20446;-69
2021/12/09 13:51:52;;;;;;;8.15;4.20;;;;;;;;;;4998998;28;20085;-70
2021/12/09 13:54:25;;;;;;;11.05;4.15;;;;;;;;;;4994208;28;20066;-70
2021/12/09 13:56:58;;;;;;;11.32;3.95;;;;;;;;;;5003416;28;20046;-69
2021/12/09 13:59:28;;;;;;;9.40;3.88;;;;;;;;;;5003779;28;20046;-69
2021/12/09 14:01:57;;;;;;;7.15;4.13;;;;;;;;;;5012963;28;20068;-69
2021/12/09 14:04:34;;;;;;;9.07;4.28;;;;;;;;;;4997018;28;20480;-69
2021/12/09 14:07:09;;;;;;;12.27;3.92;;;;;;;;;;4989456;28;20092;-69
2021/12/09 14:09:40;;;;;;;8.05;3.97;;;;;;;;;;4991121;28;20050;-69
2021/12/09 14:12:10;;;;;;;9.23;3.95;;;;;;;;;;4989529;28;20081;-70
2021/12/09 14:14:47;;;;;;;10.23;3.97;;;;;;;;;;4995332;28;20046;-70
2021/12/09 14:17:21;;;;;;;9.93;4.30;;;;;;;;;;4990128;28;20050;-69
2021/12/09 14:19:59;;;;;;;9.82;4.18;;;;;;;;;;4998103;28;20553;-69
2021/12/09 14:22:27;;;;;;;10.65;3.65;;;;;;;;;;5008078;28;20081;-66
2021/12/09 14:24:56;;;;;;;14.05;3.90;;;;;;;;;;4990114;28;20475;-67
2021/12/09 14:27:26;;;;;;;9.38;3.58;;;;;;;;;;4990630;28;20448;-68
2021/12/09 14:29:55;;;;;;;7.70;3.80;;;;;;;;;;5004762;28;20077;-68
2021/12/09 14:32:25;;;;;;;9.30;4.45;;;;;;;;;;5008852;28;20054;-68
2021/12/09 14:34:54;;;;;;;9.55;4.03;;;;;;;;;;5006405;28;20078;-68
2021/12/09 14:37:38;;;;;;;;;;;;;;;;;;5003598;28;20041;-68
2021/12/09 14:40:08;;;;;;;12.65;3.78;;;;;;;;;;4992763;28;19963;-67
2021/12/09 14:42:47;;;;;;;7.93;3.85;;;;;;;;;;5012960;28;20072;-67
2021/12/09 14:45:15;;;;;;;8.00;3.80;;;;;;;;;;4995801;28;20054;-67
2021/12/09 14:47:54;;;;;;;11.18;4.03;;;;;;;;;;4996330;28;20086;-67
2021/12/09 14:50:30;;;;;;;8.93;4.25;;;;;;;;;;4995170;28;20085;-67
2021/12/09 14:53:28;;;;;;;10.82;4.80;;;;;;;;;;4986498;28;20139;-66
2021/12/09 14:55:56;;;;;;;14.15;5.18;;;;;;;;;;4996691;28;20050;-67
2021/12/09 14:58:27;;;;;;;12.45;4.20;;;;;;;;;;4996736;28;20072;-67
2021/12/09 15:01:00;;;;;;;9.10;4.38;;;;;;;;;;4996184;28;20050;-67
2021/12/09 15:03:38;;;;;;;7.70;3.97;;;;;;;;;;5001785;28;20077;-67
2021/12/09 15:06:28;;;;;;;8.82;3.85;;;;;;;;;;5010205;28;20124;-67
2021/12/09 15:09:05;;;;;;;7.78;4.40;;;;;;;;;;5004043;28;20062;-67
2021/12/09 15:11:37;;;;;;;7.30;4.25;;;;;;;;;;5006749;28;20053;-67
2021/12/09 15:14:16;;;;;;;9.77;3.95;;;;;;;;;;5011149;28;20046;-68
2021/12/09 15:16:45;;;;;;;9.45;4.07;;;;;;;;;;5004200;28;20046;-68
2021/12/09 15:19:18;;;;;;;9.35;3.80;;;;;;;;;;5002862;28;20053;-70
2021/12/09 15:22:02;;;;;;;9.52;4.05;;;;;;;;;;5010850;28;20056;-71